Time;durP1;ratioP1;P1;durP2;ratioP2;P2;SDS_P1;SDS_P2;PMS_P1;PMS_P2;Temp;Humidity;BMP_temperature;BMP_pressure;BME280_temperature;BME280_humidity;BME280_pressure;Samples;Min_cycle;Max_cycle;Signal;HPM_P1;HPM_P2
2022/06/14 00:01:01;;;;;;;11.40;3.22;;;;;;;10.30;100.00;102325.81;10301162;28;20509;-90
2022/06/14 00:06:05;;;;;;;18.95;5.22;;;;;;;10.26;100.00;102321.75;10304942;28;20042;-90
2022/06/14 00:11:16;;;;;;;13.98;3.92;;;;;;;10.17;100.00;102314.81;10303390;28;20030;-88
2022/06/14 00:16:17;;;;;;;12.93;4.28;;;;;;;10.12;100.00;102311.84;10282382;28;20047;-88
2022/06/14 00:21:17;;;;;;;12.57;4.72;;;;;;;10.13;100.00;102324.56;10281435;28;20038;-89
2022/06/14 00:26:18;;;;;;;15.45;4.28;;;;;;;10.13;100.00;102320.94;10279797;28;20047;-89
2022/06/14 00:31:21;;;;;;;14.98;5.00;;;;;;;10.04;100.00;102318.41;10297490;28;20054;-89
2022/06/14 00:36:32;;;;;;;17.63;5.45;;;;;;;10.00;100.00;102310.81;10294796;28;20042;-89
2022/06/14 00:41:40;;;;;;;18.10;4.68;;;;;;;9.93;100.00;102310.84;10255127;28;20083;-89
2022/06/14 00:46:43;;;;;;;14.18;3.88;;;;;;;9.88;100.00;102303.25;10255734;28;20039;-89
2022/06/14 00:51:53;;;;;;;15.15;5.03;;;;;;;9.81;100.00;102313.41;10255830;28;20039;-90
2022/06/14 00:56:58;;;;;;;11.50;3.65;;;;;;;9.74;100.00;102298.00;10266903;28;20447;-89
2022/06/14 01:02:13;;;;;;;11.40;3.60;;;;;;;9.69;100.00;102304.97;10295248;28;20057;-89
2022/06/14 01:07:23;;;;;;;9.88;3.88;;;;;;;9.62;100.00;102311.53;10281703;28;20053;-89
2022/06/14 01:12:26;;;;;;;16.30;6.03;;;;;;;9.58;100.00;102310.25;10297951;28;20047;-89
2022/06/14 01:17:27;;;;;;;14.13;3.97;;;;;;;9.51;100.00;102304.78;10301079;28;20428;-89
2022/06/14 01:22:29;;;;;;;16.63;4.82;;;;;;;9.45;100.00;102302.88;10273661;28;20065;-88
2022/06/14 01:27:31;;;;;;;19.13;4.38;;;;;;;9.38;100.00;102297.34;10286574;28;20031;-88
2022/06/14 01:32:33;;;;;;;14.45;4.57;;;;;;;9.32;100.00;102302.84;10307521;28;20129;-88
2022/06/14 01:37:34;;;;;;;13.75;3.85;;;;;;;9.22;100.00;102286.78;10300968;28;20692;-89
2022/06/14 01:42:43;;;;;;;13.85;5.72;;;;;;;9.22;100.00;102295.03;10302059;28;20062;-89
2022/06/14 01:48:10;;;;;;;15.60;4.32;;;;;;;9.10;100.00;102283.84;10285821;28;20039;-89
2022/06/14 01:53:35;;;;;;;17.10;5.47;;;;;;;9.14;100.00;102284.25;10270515;28;20039;-89
2022/06/14 01:58:38;;;;;;;13.35;5.10;;;;;;;9.12;100.00;102283.63;10302233;28;20043;-89
2022/06/14 02:09:26;;;;;;;12.85;5.53;;;;;;;8.98;100.00;102302.81;10301996;28;20035;-89
2022/06/14 02:15:11;;;;;;;14.35;5.00;;;;;;;8.93;100.00;102294.38;10283382;28;20062;-89
2022/06/14 02:20:20;;;;;;;19.80;5.43;;;;;;;8.83;100.00;102282.94;10284881;28;20043;-89
2022/06/14 02:25:23;;;;;;;13.73;5.18;;;;;;;8.85;100.00;102297.31;10282872;28;20380;-88
2022/06/14 02:30:46;;;;;;;19.33;6.22;;;;;;;8.85;100.00;102303.66;10287582;28;20031;-89
2022/06/14 02:35:57;;;;;;;13.82;4.78;;;;;;;8.88;100.00;102297.72;10290633;28;20106;-88
2022/06/14 02:41:07;;;;;;;17.60;6.28;;;;;;;8.96;100.00;102291.19;10305708;28;20103;-89
2022/06/14 02:46:11;;;;;;;20.33;6.00;;;;;;;9.00;100.00;102273.25;10288900;28;20166;-88
2022/06/14 02:51:11;;;;;;;18.58;5.43;;;;;;;9.17;100.00;102295.66;10307820;28;20046;-89
2022/06/14 02:56:18;;;;;;;17.13;4.57;;;;;;;9.22;100.00;102267.53;10306461;28;20043;-88
2022/06/14 03:01:32;;;;;;;18.15;5.90;;;;;;;9.43;100.00;102283.84;10288122;28;20106;-88
2022/06/14 03:06:36;;;;;;;9.35;4.43;;;;;;;9.50;100.00;102262.66;10293830;28;20058;-89
2022/06/14 03:12:17;;;;;;;18.27;5.10;;;;;;;9.20;100.00;102217.44;10307217;28;20098;-89
2022/06/14 03:17:45;;;;;;;12.52;4.47;;;;;;;9.57;100.00;102267.31;10342668;28;20030;-89
2022/06/14 03:23:12;;;;;;;15.68;4.70;;;;;;;9.60;100.00;102266.91;10339708;28;20042;-89
2022/06/14 03:28:15;;;;;;;11.15;4.85;;;;;;;9.56;100.00;102257.38;10344346;28;20046;-77
2022/06/14 03:33:28;;;;;;;14.35;4.45;;;;;;;9.69;100.00;102276.59;10287494;28;20047;-82
2022/06/14 03:38:32;;;;;;;14.30;4.68;;;;;;;9.69;100.00;102282.09;10263236;28;20507;-89
2022/06/14 03:43:33;;;;;;;20.45;5.15;;;;;;;9.73;100.00;102266.88;10277051;28;20038;-89
2022/06/14 03:48:35;;;;;;;16.15;4.82;;;;;;;9.84;100.00;102282.72;10267300;28;20050;-89
2022/06/14 03:53:35;;;;;;;15.82;4.82;;;;;;;9.87;100.00;102274.03;10266027;28;20049;-88
2022/06/14 03:58:54;;;;;;;19.55;4.53;;;;;;;9.89;100.00;102282.06;10300256;28;20098;-88
2022/06/14 04:03:54;;;;;;;13.18;4.60;;;;;;;9.95;100.00;102278.47;10299254;28;20034;-89
2022/06/14 04:09:13;;;;;;;15.02;5.07;;;;;;;9.99;100.00;102281.63;10300255;28;20070;-89
2022/06/14 04:14:53;;;;;;;13.15;3.95;;;;;;;10.01;100.00;102269.34;10301104;28;20110;-89
2022/06/14 04:20:10;;;;;;;13.55;3.83;;;;;;;10.05;100.00;102286.28;10301913;28;20442;-87
2022/06/14 04:25:18;;;;;;;14.60;4.82;;;;;;;10.04;100.00;102285.41;10284472;28;20034;-89
2022/06/14 04:30:29;;;;;;;14.20;3.92;;;;;;;10.09;100.00;102282.03;10296128;28;20117;-89
2022/06/14 04:35:41;;;;;;;15.65;4.68;;;;;;;10.15;100.00;102286.66;10303758;28;20042;-88
2022/06/14 04:40:54;;;;;;;15.75;5.18;;;;;;;10.20;100.00;102275.84;10298238;28;20039;-89
2022/06/14 04:46:34;;;;;;;19.42;5.25;;;;;;;10.22;100.00;102270.97;10299491;28;20079;-88
2022/06/14 04:51:47;;;;;;;17.38;4.53;;;;;;;10.29;100.00;102293.84;10261463;28;20043;-88
2022/06/14 04:57:08;;;;;;;15.43;4.55;;;;;;;10.37;100.00;102294.66;10307254;28;20099;-89
2022/06/14 05:02:15;;;;;;;15.02;4.70;;;;;;;10.48;100.00;102285.72;10307442;28;20043;-89
2022/06/14 05:07:48;;;;;;;11.95;4.78;;;;;;;10.63;100.00;102288.19;10289921;28;20039;-89
2022/06/14 05:13:02;;;;;;;17.58;4.53;;;;;;;10.81;100.00;102292.94;10294559;28;20686;-88
2022/06/14 05:18:05;;;;;;;11.32;4.07;;;;;;;11.05;100.00;102292.13;10305979;28;20638;-88
2022/06/14 05:23:14;;;;;;;12.60;3.72;;;;;;;11.21;100.00;102300.94;10306658;28;20058;-89
2022/06/14 05:28:18;;;;;;;10.73;3.17;;;;;;;11.44;100.00;102309.44;10289578;28;20573;-88
2022/06/14 05:33:34;;;;;;;14.55;4.32;;;;;;;11.61;100.00;102306.13;10292024;28;20050;-88
2022/06/14 05:38:59;;;;;;;14.93;3.23;;;;;;;11.81;100.00;102314.22;10305821;28;20049;-89
2022/06/14 05:44:12;;;;;;;10.45;4.03;;;;;;;11.98;100.00;102311.72;10306043;28;20055;-89
2022/06/14 05:49:24;;;;;;;11.35;5.07;;;;;;;12.03;100.00;102309.13;10273345;28;20118;-88
2022/06/14 05:54:27;;;;;;;8.68;3.33;;;;;;;12.30;100.00;102323.50;10288433;28;20049;-89
2022/06/14 05:59:40;;;;;;;9.48;3.17;;;;;;;12.45;100.00;102295.47;10305444;28;20514;-87
2022/06/14 06:04:41;;;;;;;12.40;3.70;;;;;;;12.78;100.00;102305.25;10288808;28;20053;-89
2022/06/14 06:09:48;;;;;;;10.63;3.30;;;;;;;13.02;100.00;102312.53;10305646;28;20099;-89
2022/06/14 06:14:51;;;;;;;12.50;3.63;;;;;;;13.48;100.00;102297.13;10288456;28;20107;-90
2022/06/14 06:20:01;;;;;;;11.70;2.60;;;;;;;13.77;100.00;102300.03;10288255;28;20631;-89
2022/06/14 06:25:18;;;;;;;10.00;3.08;;;;;;;13.85;100.00;102321.81;10304395;28;20042;-88
2022/06/14 06:30:37;;;;;;;9.85;3.05;;;;;;;13.68;100.00;102259.97;10299696;28;20049;-88
2022/06/14 06:35:42;;;;;;;9.65;3.00;;;;;;;14.16;100.00;102310.59;10288207;28;20047;-89
2022/06/14 06:41:49;;;;;;;12.93;2.85;;;;;;;14.40;100.00;102309.44;10286803;28;20054;-87
2022/06/14 06:46:08;;;;;;;7.53;2.65;;;;;;;14.69;100.00;102313.13;10288216;28;20051;-80
2022/06/14 06:51:10;;;;;;;11.38;2.22;;;;;;;14.95;100.00;102324.72;10302389;28;20355;-89
2022/06/14 06:56:13;;;;;;;11.18;2.47;;;;;;;15.15;100.00;102318.69;10285390;28;20569;-85
2022/06/14 07:01:22;;;;;;;10.73;2.20;;;;;;;15.32;100.00;102327.06;10298886;28;20031;-82
2022/06/14 07:06:30;;;;;;;12.32;3.47;;;;;;;15.18;100.00;102322.91;10279380;28;20042;-87
2022/06/14 07:11:34;;;;;;;10.98;3.10;;;;;;;15.18;100.00;102331.22;10253669;28;20039;-90
2022/06/14 07:16:38;;;;;;;5.45;1.90;;;;;;;15.25;100.00;102329.97;10251502;28;20054;-87
2022/06/14 07:21:42;;;;;;;6.95;1.20;;;;;;;15.28;100.00;102331.41;10262222;28;20039;-85
2022/06/14 07:26:50;;;;;;;10.95;2.15;;;;;;;15.70;100.00;102339.34;10264450;28;20047;-87
2022/06/14 07:31:53;;;;;;;5.60;1.63;;;;;;;16.04;100.00;102336.53;10274525;28;20063;-86
2022/06/14 07:37:19;;;;;;;6.60;2.20;;;;;;;16.39;100.00;102329.78;10266185;28;21422;-88
2022/06/14 07:42:23;;;;;;;4.97;1.70;;;;;;;16.47;100.00;102329.34;10268262;28;20106;-87
2022/06/14 07:47:35;;;;;;;6.85;1.60;;;;;;;16.05;100.00;102283.50;10286982;28;20103;-84
2022/06/14 07:52:54;;;;;;;8.77;1.63;;;;;;;16.82;100.00;102317.81;10293587;28;20035;-87
2022/06/14 07:58:01;;;;;;;3.63;1.15;;;;;;;17.10;100.00;102310.34;10276712;28;20039;-87
2022/06/14 08:03:36;;;;;;;4.63;1.15;;;;;;;17.09;100.00;102309.47;10275399;28;20031;-86
2022/06/14 08:08:37;;;;;;;5.90;2.30;;;;;;;16.99;100.00;102302.97;10276610;28;20146;-88
2022/06/14 08:13:42;;;;;;;5.70;1.48;;;;;;;16.68;100.00;102297.06;10267538;28;20039;-87
2022/06/14 08:18:48;;;;;;;4.95;1.42;;;;;;;17.03;100.00;102316.13;10265423;28;20035;-87
2022/06/14 08:24:22;;;;;;;8.48;2.88;;;;;;;17.58;98.75;102299.34;10274809;28;20055;-87
2022/06/14 08:29:33;;;;;;;6.28;1.23;;;;;;;17.30;99.42;102310.53;10290787;28;20031;-86
2022/06/14 08:34:36;;;;;;;9.57;1.38;;;;;;;16.59;99.89;102315.31;10277213;28;20034;-88
2022/06/14 08:39:45;;;;;;;5.32;1.05;;;;;;;17.05;100.00;102311.13;10293184;28;20049;-87
2022/06/14 08:45:01;;;;;;;4.20;1.55;;;;;;;18.08;96.63;102276.53;10274541;28;20077;-86
2022/06/14 08:50:08;;;;;;;6.43;1.38;;;;;;;18.61;90.82;102289.59;10289765;28;20035;-86
2022/06/14 08:55:34;;;;;;;6.60;1.00;;;;;;;17.75;90.74;102291.66;10279199;28;20054;-86
2022/06/14 09:01:05;;;;;;;7.15;1.02;;;;;;;17.44;92.29;102293.38;10269688;28;20058;-88
2022/06/14 09:06:21;;;;;;;11.43;1.63;;;;;;;17.88;92.87;102296.78;10273310;28;20031;-87
2022/06/14 09:11:38;;;;;;;3.08;0.90;;;;;;;18.71;88.09;102284.88;10258116;28;20039;-87
2022/06/14 09:17:09;;;;;;;5.55;1.23;;;;;;;18.23;83.81;102275.81;10290973;28;20043;-87
2022/06/14 09:22:33;;;;;;;4.00;0.60;;;;;;;17.88;87.08;102284.78;10290771;28;20047;-87
2022/06/14 09:27:56;;;;;;;3.85;0.73;;;;;;;18.13;83.70;102270.19;10280941;28;20046;-84
2022/06/14 09:33:11;;;;;;;2.47;1.02;;;;;;;19.45;78.93;102259.56;10300779;28;20062;-90
2022/06/14 09:38:42;;;;;;;8.68;2.53;;;;;;;19.76;76.00;102271.53;10302643;28;20126;-88
2022/06/14 09:44:14;;;;;;;4.35;1.02;;;;;;;18.78;79.82;102278.19;10269241;28;20043;-90
2022/06/14 09:49:50;;;;;;;10.05;1.40;;;;;;;18.28;82.38;102291.72;10272546;28;20059;-89
2022/06/14 09:55:32;;;;;;;4.95;0.82;;;;;;;18.66;78.86;102276.47;10248495;28;20047;-89
2022/06/14 10:00:54;;;;;;;3.38;1.05;;;;;;;19.89;76.16;102265.38;10309672;28;20050;-90
2022/06/14 10:06:19;;;;;;;5.38;1.00;;;;;;;19.86;77.78;102277.13;10292586;28;21255;-89
2022/06/14 10:11:23;;;;;;;2.05;1.10;;;;;;;19.46;78.02;102273.25;10304465;28;20057;-89
2022/06/14 10:16:29;;;;;;;4.50;1.02;;;;;;;19.15;79.12;102272.41;10283977;28;20440;-91
2022/06/14 10:21:43;;;;;;;2.20;0.80;;;;;;;18.78;77.96;102262.28;10277205;28;20058;-86
2022/06/14 10:32:25;;;;;;;3.90;0.75;;;;;;;18.88;79.16;102272.69;10289197;28;20093;-92
2022/06/14 10:37:40;;;;;;;5.00;0.85;;;;;;;20.22;77.70;102268.63;10298080;28;20070;-90
2022/06/14 10:42:46;;;;;;;5.95;1.00;;;;;;;21.74;73.63;102248.22;10262670;28;20069;-92
2022/06/14 10:48:07;;;;;;;5.10;1.02;;;;;;;21.60;69.01;102229.59;10277711;28;20576;-90
2022/06/14 10:53:22;;;;;;;4.05;0.90;;;;;;;20.67;69.53;102233.19;10274827;28;20043;-90
2022/06/14 10:58:31;;;;;;;6.22;0.90;;;;;;;19.85;73.01;102199.16;10282511;28;20074;-91
2022/06/14 11:03:45;;;;;;;3.10;1.17;;;;;;;19.61;73.74;102258.41;10280395;28;20035;-89
2022/06/14 11:09:02;;;;;;;2.38;0.70;;;;;;;19.10;76.16;102259.31;10274395;28;20050;-90
2022/06/14 11:14:15;;;;;;;9.05;0.80;;;;;;;19.03;80.23;102269.88;10249298;28;20045;-91
2022/06/14 11:24:35;;;;;;;5.68;1.10;;;;;;;19.79;81.80;102257.03;10277257;28;20050;-90
2022/06/14 11:29:45;;;;;;;4.28;0.80;;;;;;;20.31;78.11;102252.91;10282000;28;20062;-91
2022/06/14 11:34:56;;;;;;;4.88;1.00;;;;;;;21.11;78.21;102242.66;10265443;28;20117;-90
2022/06/14 11:40:25;;;;;;;5.03;1.10;;;;;;;21.45;73.87;102169.81;10277435;28;20043;-91
2022/06/14 11:45:32;;;;;;;3.22;0.90;;;;;;;22.01;73.12;102218.75;10262901;28;20058;-92
2022/06/14 11:50:54;;;;;;;4.28;0.90;;;;;;;22.12;71.90;102208.28;10275578;28;20038;-92
2022/06/14 11:56:11;;;;;;;3.38;0.90;;;;;;;21.87;72.23;102209.41;10284030;28;20046;-90
2022/06/14 12:01:15;;;;;;;3.90;1.02;;;;;;;21.94;72.66;102223.91;10259197;28;20042;-89
2022/06/14 12:06:38;;;;;;;2.70;0.98;;;;;;;22.04;69.62;102186.50;10252985;28;20031;-91
2022/06/14 12:12:04;;;;;;;3.72;1.27;;;;;;;21.76;70.47;102212.31;10238393;28;20097;-90
2022/06/14 12:17:20;;;;;;;4.00;1.00;;;;;;;21.86;69.90;102200.16;10265992;28;20050;-90
2022/06/14 12:22:31;;;;;;;3.03;1.52;;;;;;;22.04;71.62;102211.75;10307862;28;20271;-90
2022/06/14 12:27:31;;;;;;;4.90;1.65;;;;;;;22.11;68.87;102199.00;10281427;28;20089;-91
2022/06/14 12:32:34;;;;;;;2.97;0.75;;;;;;;21.72;67.85;102188.00;10248835;28;20046;-90
2022/06/14 12:38:10;;;;;;;5.97;1.35;;;;;;;21.08;74.32;102224.44;10254542;28;20045;-91
2022/06/14 12:43:29;;;;;;;5.30;1.05;;;;;;;20.49;73.39;102200.25;10263882;28;20499;-91
2022/06/14 12:48:39;;;;;;;5.45;1.30;;;;;;;20.30;75.42;102203.72;10273741;28;20042;-90
2022/06/14 12:54:06;;;;;;;7.10;0.77;;;;;;;20.51;74.33;102198.00;10270667;28;20039;-91
2022/06/14 12:59:27;;;;;;;3.58;1.00;;;;;;;21.09;73.30;102186.94;10276559;28;20495;-90
2022/06/14 13:04:30;;;;;;;5.63;1.25;;;;;;;21.92;69.68;102165.31;10282699;28;20059;-91
2022/06/14 13:09:55;;;;;;;4.95;1.08;;;;;;;23.09;69.46;102164.72;10256370;28;20049;-91
2022/06/14 13:14:58;;;;;;;4.05;1.00;;;;;;;23.02;70.38;102158.66;10298336;28;20090;-90
2022/06/14 13:20:03;;;;;;;6.10;1.55;;;;;;;22.43;70.74;102137.69;10298885;28;20070;-91
2022/06/14 13:25:15;;;;;;;4.47;0.90;;;;;;;22.49;72.76;102172.97;10300704;28;20031;-91
2022/06/14 13:30:24;;;;;;;18.77;3.03;;;;;;;22.06;71.83;102159.00;10306834;28;20046;-92
2022/06/14 13:35:44;;;;;;;5.88;1.55;;;;;;;22.16;72.94;102161.66;10302376;28;20047;-92
2022/06/14 13:40:52;;;;;;;5.35;1.23;;;;;;;22.54;72.05;102158.88;10284692;28;20035;-92
2022/06/14 13:46:09;;;;;;;4.03;1.77;;;;;;;22.90;71.17;102155.47;10282820;28;20107;-91
2022/06/14 13:51:17;;;;;;;4.43;1.30;;;;;;;23.70;69.57;102147.81;10298342;28;20049;-92
2022/06/14 13:56:20;;;;;;;4.43;1.25;;;;;;;24.73;65.98;102127.47;10301425;28;20043;-92
2022/06/14 14:01:34;;;;;;;6.38;1.98;;;;;;;24.68;62.77;102123.97;10298747;28;20062;-92
2022/06/14 14:07:12;;;;;;;3.08;1.60;;;;;;;23.23;65.48;102131.03;10299953;28;20043;-93
2022/06/14 14:12:40;;;;;;;3.42;1.33;;;;;;;22.04;70.60;102105.19;10306020;28;20114;-93
2022/06/14 14:18:09;;;;;;;9.65;1.73;;;;;;;23.06;67.75;102134.44;10295575;28;20305;-91
2022/06/14 14:23:24;;;;;;;4.97;1.55;;;;;;;22.67;68.29;102118.78;10297930;28;20047;-91
2022/06/14 14:28:29;;;;;;;3.75;1.25;;;;;;;23.17;66.93;102109.78;10298540;28;20043;-92
2022/06/14 14:33:58;;;;;;;4.05;1.33;;;;;;;23.26;66.93;102118.34;10286627;28;20038;-93
2022/06/14 14:39:06;;;;;;;3.90;1.10;;;;;;;22.96;68.65;102114.91;10287487;28;20043;-91
2022/06/14 14:44:14;;;;;;;3.03;0.98;;;;;;;22.56;67.87;102117.31;10296145;28;20069;-92
2022/06/14 14:49:25;;;;;;;4.25;1.45;;;;;;;22.69;66.71;102113.69;10280074;28;20105;-93
2022/06/14 14:54:49;;;;;;;2.97;1.00;;;;;;;22.34;68.07;102121.56;10297686;28;20039;-92
2022/06/14 14:59:53;;;;;;;3.25;0.90;;;;;;;22.15;69.54;102115.09;10291409;28;20597;-89
2022/06/14 15:10:35;;;;;;;4.47;1.27;;;;;;;21.31;71.05;102073.56;10277965;28;20039;-91
2022/06/14 15:15:38;;;;;;;4.38;1.95;;;;;;;20.97;73.67;102122.09;10235611;28;20043;-93
2022/06/14 15:21:05;;;;;;;4.63;1.20;;;;;;;20.89;74.45;102128.34;10291406;28;20050;-92
2022/06/14 15:26:16;;;;;;;4.63;0.90;;;;;;;20.84;74.87;102118.03;10292509;28;20047;-92
2022/06/14 15:31:26;;;;;;;2.55;1.00;;;;;;;20.78;74.75;102122.00;10282933;28;20042;-92
2022/06/14 15:36:27;;;;;;;3.33;1.13;;;;;;;20.43;74.13;102106.31;10296862;28;20519;-91
2022/06/14 15:41:35;;;;;;;3.42;1.08;;;;;;;20.06;71.63;102074.94;10295549;28;20039;-92
2022/06/14 15:46:35;;;;;;;4.85;1.00;;;;;;;20.38;77.64;102111.91;10272517;28;20043;-91
2022/06/14 15:51:36;;;;;;;3.60;1.25;;;;;;;20.53;73.32;102064.25;10273585;28;20039;-91
2022/06/14 15:56:40;;;;;;;3.88;1.25;;;;;;;20.95;74.52;102090.75;10274880;28;20426;-91
2022/06/14 16:01:42;;;;;;;4.57;1.08;;;;;;;21.14;74.79;102083.25;10259775;28;20050;-92
2022/06/14 16:07:10;;;;;;;3.28;0.93;;;;;;;21.86;71.31;102074.00;10254523;28;20076;-89
2022/06/14 16:12:23;;;;;;;3.40;1.30;;;;;;;21.41;73.37;102081.84;10259255;28;20138;-91
2022/06/14 16:17:40;;;;;;;4.95;1.35;;;;;;;20.65;75.12;102081.53;10242980;28;20062;-93
2022/06/14 16:22:41;;;;;;;4.55;1.60;;;;;;;20.37;75.05;102074.72;10274964;28;20050;-89
2022/06/14 16:28:02;;;;;;;3.58;1.50;;;;;;;20.15;78.00;102078.81;10257064;28;20075;-90
2022/06/14 16:33:13;;;;;;;5.35;1.17;;;;;;;20.12;81.12;102095.31;10276018;28;20063;-89
2022/06/14 16:38:24;;;;;;;4.38;2.00;;;;;;;20.01;78.03;102075.00;10280695;28;20067;-93
2022/06/14 16:44:15;;;;;;;3.85;1.40;;;;;;;19.79;78.83;102080.97;10292926;28;20134;-87
2022/06/14 16:49:49;;;;;;;5.38;1.58;;;;;;;19.81;79.31;102066.72;10287863;28;20042;-89
2022/06/14 16:54:53;;;;;;;6.45;1.48;;;;;;;19.88;80.92;102078.41;10275768;28;20045;-88
2022/06/14 17:00:14;;;;;;;3.83;1.63;;;;;;;19.67;79.45;102067.31;10254331;28;20062;-89
2022/06/14 17:05:27;;;;;;;6.95;1.40;;;;;;;19.63;82.97;102043.03;10267180;28;20046;-89
2022/06/14 17:10:42;;;;;;;4.85;1.42;;;;;;;19.75;79.68;102072.31;10267640;28;20050;-89
2022/06/14 17:15:53;;;;;;;6.45;1.17;;;;;;;19.61;78.97;102068.47;10268605;28;20047;-88
2022/06/14 17:21:12;;;;;;;4.88;1.52;;;;;;;19.38;82.82;102081.13;10283783;28;20042;-89
2022/06/14 17:31:49;;;;;;;4.53;1.48;;;;;;;19.10;84.19;102069.50;10295041;28;20050;-91
2022/06/14 17:37:09;;;;;;;4.80;1.00;;;;;;;19.01;82.31;102075.94;10251143;28;20047;-91
2022/06/14 17:42:14;;;;;;;7.22;1.65;;;;;;;18.85;85.50;102080.69;10292159;28;20129;-91
2022/06/14 17:47:15;;;;;;;3.03;1.10;;;;;;;18.84;86.01;102084.59;10252076;28;20104;-90
2022/06/14 17:52:32;;;;;;;3.95;1.50;;;;;;;18.80;91.10;102091.88;10274781;28;20046;-91
2022/06/14 17:57:59;;;;;;;3.35;1.30;;;;;;;18.54;88.20;102084.31;10289040;28;20045;-90
2022/06/14 18:03:03;;;;;;;4.88;1.20;;;;;;;18.37;89.02;102066.19;10300029;28;20106;-90
2022/06/14 18:08:15;;;;;;;3.70;1.20;;;;;;;18.24;91.28;102089.88;10297149;28;20070;-90
2022/06/14 18:13:21;;;;;;;3.35;1.00;;;;;;;18.28;93.96;102080.66;10284058;28;20043;-90
2022/06/14 18:18:39;;;;;;;3.05;1.30;;;;;;;18.13;91.89;102073.13;10298832;28;20043;-90
2022/06/14 18:23:40;;;;;;;6.97;1.30;;;;;;;17.94;93.35;102075.59;10284472;28;20046;-91
2022/06/14 18:28:41;;;;;;;3.47;1.58;;;;;;;17.78;93.28;102068.28;10260095;28;20043;-92
2022/06/14 18:33:57;;;;;;;4.75;1.42;;;;;;;17.73;94.85;102073.81;10279578;28;20070;-91
2022/06/14 18:38:57;;;;;;;3.43;1.27;;;;;;;17.64;94.95;102078.25;10276572;28;20054;-91
2022/06/14 18:44:19;;;;;;;3.38;1.58;;;;;;;17.51;97.09;102076.81;10283456;28;20064;-91
2022/06/14 18:49:39;;;;;;;4.97;1.58;;;;;;;17.44;97.78;102077.03;10261167;28;20035;-90
2022/06/14 18:54:51;;;;;;;7.20;1.80;;;;;;;17.33;99.46;102058.63;10280101;28;20054;-91
2022/06/14 18:59:52;;;;;;;5.63;1.48;;;;;;;17.34;98.62;102065.88;10252280;28;20089;-91
2022/06/14 19:04:52;;;;;;;2.28;1.38;;;;;;;17.22;98.07;102068.03;10261201;28;20038;-90
2022/06/14 19:10:08;;;;;;;7.45;1.83;;;;;;;16.99;100.00;102069.28;10291564;28;20035;-91
2022/06/14 19:15:32;;;;;;;3.03;1.70;;;;;;;16.97;100.00;102080.72;10254549;28;20055;-90
2022/06/14 19:20:58;;;;;;;5.43;2.05;;;;;;;16.87;100.00;102083.41;10288526;28;20036;-87
2022/06/14 19:26:08;;;;;;;5.88;1.65;;;;;;;16.81;100.00;102084.50;10282463;28;20039;-91
2022/06/14 19:31:13;;;;;;;6.90;1.85;;;;;;;16.59;100.00;102071.47;10279568;28;20047;-90
2022/06/14 19:36:31;;;;;;;5.67;2.43;;;;;;;16.52;100.00;102082.84;10281462;28;20038;-91
2022/06/14 19:41:48;;;;;;;5.88;1.80;;;;;;;16.40;100.00;102073.00;10266232;28;20061;-91
2022/06/14 19:46:56;;;;;;;7.30;2.08;;;;;;;16.36;100.00;102094.91;10259911;28;20047;-90
2022/06/14 19:51:58;;;;;;;3.15;2.00;;;;;;;16.28;100.00;102090.66;10293622;28;20586;-90
2022/06/14 19:56:58;;;;;;;3.50;2.20;;;;;;;15.87;100.00;102048.56;10289869;28;20041;-91
2022/06/14 20:02:04;;;;;;;2.78;1.92;;;;;;;16.08;100.00;102090.47;10254914;28;20050;-90
2022/06/14 20:07:07;;;;;;;7.30;2.47;;;;;;;16.00;100.00;102105.69;10243353;28;20312;-91
2022/06/14 20:12:13;;;;;;;6.22;2.08;;;;;;;15.84;100.00;102093.53;10286352;28;20054;-91
2022/06/14 20:17:17;;;;;;;8.10;2.08;;;;;;;15.84;100.00;102107.44;10280942;28;20053;-90
2022/06/14 20:22:18;;;;;;;4.90;1.95;;;;;;;15.72;100.00;102098.41;10252155;28;20053;-90
2022/06/14 20:27:18;;;;;;;2.92;1.67;;;;;;;15.69;100.00;102107.22;10276632;28;20045;-90
2022/06/14 20:32:33;;;;;;;4.70;1.65;;;;;;;15.52;100.00;102085.06;10286770;28;20046;-91
2022/06/14 20:37:35;;;;;;;4.95;2.58;;;;;;;15.54;100.00;102110.63;10240045;28;20067;-90
2022/06/14 20:42:38;;;;;;;5.25;2.03;;;;;;;15.32;100.00;102088.44;10274918;28;20123;-91
2022/06/14 20:47:39;;;;;;;5.93;2.17;;;;;;;15.34;100.00;102100.09;10274681;28;20046;-91
2022/06/14 20:52:39;;;;;;;5.57;2.42;;;;;;;15.16;100.00;102097.63;10285793;28;20046;-90
2022/06/14 20:57:41;;;;;;;9.88;2.50;;;;;;;14.91;100.00;102087.84;10259051;28;20054;-90
2022/06/14 21:02:43;;;;;;;6.57;2.20;;;;;;;14.72;100.00;102093.66;10270777;28;20123;-88
2022/06/14 21:07:43;;;;;;;3.35;1.98;;;;;;;14.48;100.00;102089.31;10269772;28;20090;-87
2022/06/14 21:12:44;;;;;;;5.30;2.08;;;;;;;14.33;100.00;102084.34;10245396;28;20057;-81
2022/06/14 21:17:45;;;;;;;6.18;2.47;;;;;;;14.19;100.00;102094.91;10286568;28;20059;-88
2022/06/14 21:22:50;;;;;;;6.85;2.70;;;;;;;14.04;100.00;102098.22;10286180;28;20039;-87
2022/06/14 21:27:51;;;;;;;5.65;2.17;;;;;;;13.78;100.00;102057.31;10249792;28;20066;-87
2022/06/14 21:32:54;;;;;;;6.03;2.10;;;;;;;13.81;100.00;102088.09;10257068;28;20074;-87
2022/06/14 21:38:03;;;;;;;4.72;2.75;;;;;;;13.69;100.00;102081.78;10297264;28;20110;-88
2022/06/14 21:43:05;;;;;;;7.72;2.70;;;;;;;13.55;100.00;102085.91;10295143;28;20051;-88
2022/06/14 21:48:07;;;;;;;6.53;2.33;;;;;;;13.48;100.00;102094.34;10293712;28;20051;-88
2022/06/14 21:53:09;;;;;;;3.80;2.70;;;;;;;13.30;100.00;102079.56;10277408;28;20470;-90
2022/06/14 21:58:13;;;;;;;11.60;3.08;;;;;;;13.30;100.00;102093.41;10277253;28;20070;-86
2022/06/14 22:03:33;;;;;;;5.68;2.55;;;;;;;13.12;100.00;102066.72;10277084;28;20039;-87
2022/06/14 22:08:34;;;;;;;5.07;3.00;;;;;;;13.08;100.00;102092.31;10310333;28;20046;-86
2022/06/14 22:13:39;;;;;;;8.88;3.15;;;;;;;12.97;100.00;102082.94;10264108;28;20546;-87
2022/06/14 22:18:40;;;;;;;8.60;3.58;;;;;;;12.91;100.00;102095.78;10271642;28;20030;-87
2022/06/14 22:29:01;;;;;;;4.50;2.88;;;;;;;12.65;100.00;102086.06;10278489;28;20051;-88
2022/06/14 22:34:02;;;;;;;10.65;3.80;;;;;;;12.55;100.00;102069.25;10288271;28;20046;-88
2022/06/14 22:39:02;;;;;;;6.90;3.28;;;;;;;12.50;100.00;102077.38;10280190;28;20046;-88
2022/06/14 22:44:03;;;;;;;8.90;4.50;;;;;;;12.47;100.00;102086.16;10261021;28;20349;-84
2022/06/14 22:49:03;;;;;;;5.10;3.60;;;;;;;12.30;100.00;102073.03;10276302;28;20031;-94
2022/06/14 22:54:04;;;;;;;6.47;3.45;;;;;;;11.98;100.00;102030.22;10239214;28;20090;-87
2022/06/14 22:59:04;;;;;;;7.88;3.63;;;;;;;12.25;100.00;102086.69;10307943;28;20041;-79
2022/06/14 23:04:05;;;;;;;9.25;4.05;;;;;;;12.11;100.00;102079.69;10280638;28;20035;-88
2022/06/14 23:09:05;;;;;;;9.52;3.65;;;;;;;12.08;100.00;102097.56;10316075;28;20035;-86
2022/06/14 23:14:06;;;;;;;8.90;4.22;;;;;;;11.90;100.00;102079.13;10285297;28;20091;-88
2022/06/14 23:19:06;;;;;;;9.98;3.75;;;;;;;11.81;100.00;102080.50;10218854;28;20039;-86
2022/06/14 23:24:07;;;;;;;11.00;4.07;;;;;;;11.88;100.00;102100.59;10243676;28;20155;-88
2022/06/14 23:29:08;;;;;;;8.02;4.65;;;;;;;11.84;100.00;102088.31;10273020;28;20035;-88
2022/06/14 23:34:14;;;;;;;11.15;4.15;;;;;;;11.81;100.00;102090.72;10294576;28;20039;-87
2022/06/14 23:39:14;;;;;;;7.07;4.20;;;;;;;11.75;100.00;102092.47;10314118;28;20058;-89
2022/06/14 23:44:16;;;;;;;10.00;4.15;;;;;;;11.63;100.00;102080.53;10306795;28;20522;-89
2022/06/14 23:49:18;;;;;;;10.68;3.95;;;;;;;11.56;100.00;102079.81;10240696;28;20279;-87
2022/06/14 23:54:18;;;;;;;10.73;4.45;;;;;;;11.54;100.00;102084.72;10308296;28;20073;-82
2022/06/14 23:59:19;;;;;;;9.48;4.95;;;;;;;11.43;100.00;102072.50;10322090;28;20045;-89
